sensor_id;sensor_type;location;lat;lon;timestamp;P1;durP1;ratioP1;P2;durP2;ratioP2
3875;SDS011;1953;51.222;6.624;2024-03-22T00:01:59;41.03;;;21.30;;
3875;SDS011;1953;51.222;6.624;2024-03-22T00:06:42;36.83;;;21.33;;
3875;SDS011;1953;51.222;6.624;2024-03-22T00:11:26;39.63;;;21.70;;
3875;SDS011;1953;51.222;6.624;2024-03-22T00:16:08;41.67;;;20.97;;
3875;SDS011;1953;51.222;6.624;2024-03-22T00:22:07;40.43;;;21.17;;
3875;SDS011;1953;51.222;6.624;2024-03-22T00:26:49;38.57;;;21.23;;
3875;SDS011;1953;51.222;6.624;2024-03-22T00:31:32;39.27;;;20.30;;
3875;SDS011;1953;51.222;6.624;2024-03-22T00:36:14;36.57;;;20.43;;
3875;SDS011;1953;51.222;6.624;2024-03-22T00:40:59;38.80;;;22.00;;
3875;SDS011;1953;51.222;6.624;2024-03-22T00:45:41;43.10;;;22.00;;
3875;SDS011;1953;51.222;6.624;2024-03-22T00:50:24;41.00;;;22.20;;
3875;SDS011;1953;51.222;6.624;2024-03-22T00:55:06;49.80;;;23.70;;
3875;SDS011;1953;51.222;6.624;2024-03-22T00:59:50;43.87;;;21.93;;
3875;SDS011;1953;51.222;6.624;2024-03-22T01:04:33;41.20;;;20.50;;
3875;SDS011;1953;51.222;6.624;2024-03-22T01:09:15;44.57;;;22.00;;
3875;SDS011;1953;51.222;6.624;2024-03-22T01:13:58;43.90;;;21.70;;
3875;SDS011;1953;51.222;6.624;2024-03-22T01:18:42;40.40;;;22.00;;
3875;SDS011;1953;51.222;6.624;2024-03-22T01:23:24;41.93;;;21.70;;
3875;SDS011;1953;51.222;6.624;2024-03-22T01:28:07;46.00;;;22.03;;
3875;SDS011;1953;51.222;6.624;2024-03-22T01:32:49;47.33;;;22.83;;
3875;SDS011;1953;51.222;6.624;2024-03-22T01:37:33;42.93;;;21.80;;
3875;SDS011;1953;51.222;6.624;2024-03-22T01:42:16;47.90;;;22.93;;
3875;SDS011;1953;51.222;6.624;2024-03-22T01:46:58;40.77;;;22.40;;
3875;SDS011;1953;51.222;6.624;2024-03-22T01:51:41;44.93;;;21.90;;
3875;SDS011;1953;51.222;6.624;2024-03-22T01:56:26;39.37;;;20.77;;
3875;SDS011;1953;51.222;6.624;2024-03-22T02:01:08;39.70;;;21.33;;
3875;SDS011;1953;51.222;6.624;2024-03-22T02:05:51;45.07;;;21.00;;
3875;SDS011;1953;51.222;6.624;2024-03-22T02:10:34;44.70;;;21.93;;
3875;SDS011;1953;51.222;6.624;2024-03-22T02:15:18;43.70;;;22.43;;
3875;SDS011;1953;51.222;6.624;2024-03-22T02:20:01;42.00;;;23.40;;
3875;SDS011;1953;51.222;6.624;2024-03-22T02:24:46;47.13;;;22.73;;
3875;SDS011;1953;51.222;6.624;2024-03-22T02:29:29;40.90;;;21.20;;
3875;SDS011;1953;51.222;6.624;2024-03-22T02:34:11;42.77;;;23.53;;
3875;SDS011;1953;51.222;6.624;2024-03-22T02:38:54;44.63;;;23.37;;
3875;SDS011;1953;51.222;6.624;2024-03-22T02:43:37;48.30;;;22.37;;
3875;SDS011;1953;51.222;6.624;2024-03-22T02:48:20;39.40;;;20.73;;
3875;SDS011;1953;51.222;6.624;2024-03-22T02:53:03;41.37;;;21.60;;
3875;SDS011;1953;51.222;6.624;2024-03-22T02:57:46;37.63;;;22.00;;
3875;SDS011;1953;51.222;6.624;2024-03-22T03:02:32;43.60;;;21.83;;
3875;SDS011;1953;51.222;6.624;2024-03-22T03:07:14;40.83;;;21.57;;
3875;SDS011;1953;51.222;6.624;2024-03-22T03:11:57;43.10;;;22.30;;
3875;SDS011;1953;51.222;6.624;2024-03-22T03:16:39;53.87;;;23.70;;
3875;SDS011;1953;51.222;6.624;2024-03-22T03:21:23;41.90;;;21.70;;
3875;SDS011;1953;51.222;6.624;2024-03-22T03:26:06;43.60;;;22.00;;
3875;SDS011;1953;51.222;6.624;2024-03-22T03:30:48;47.00;;;22.80;;
3875;SDS011;1953;51.222;6.624;2024-03-22T03:35:31;46.63;;;22.30;;
3875;SDS011;1953;51.222;6.624;2024-03-22T03:40:15;45.87;;;23.13;;
3875;SDS011;1953;51.222;6.624;2024-03-22T03:44:57;46.17;;;21.93;;
3875;SDS011;1953;51.222;6.624;2024-03-22T03:49:40;43.37;;;23.20;;
3875;SDS011;1953;51.222;6.624;2024-03-22T03:54:22;46.47;;;23.37;;
3875;SDS011;1953;51.222;6.624;2024-03-22T03:59:06;57.23;;;24.33;;
3875;SDS011;1953;51.222;6.624;2024-03-22T04:03:49;44.87;;;24.10;;
3875;SDS011;1953;51.222;6.624;2024-03-22T04:08:31;49.10;;;23.10;;
3875;SDS011;1953;51.222;6.624;2024-03-22T04:13:14;42.17;;;24.17;;
3875;SDS011;1953;51.222;6.624;2024-03-22T04:17:58;46.33;;;23.87;;
3875;SDS011;1953;51.222;6.624;2024-03-22T04:22:41;43.93;;;24.57;;
3875;SDS011;1953;51.222;6.624;2024-03-22T04:27:23;48.43;;;25.00;;
3875;SDS011;1953;51.222;6.624;2024-03-22T04:32:06;44.67;;;24.60;;
3875;SDS011;1953;51.222;6.624;2024-03-22T04:36:50;54.57;;;25.53;;
3875;SDS011;1953;51.222;6.624;2024-03-22T04:41:33;47.87;;;24.90;;
3875;SDS011;1953;51.222;6.624;2024-03-22T04:46:16;48.80;;;25.67;;
3875;SDS011;1953;51.222;6.624;2024-03-22T04:50:58;49.30;;;24.63;;
3875;SDS011;1953;51.222;6.624;2024-03-22T04:55:43;44.23;;;23.23;;
3875;SDS011;1953;51.222;6.624;2024-03-22T05:00:26;39.87;;;23.87;;
3875;SDS011;1953;51.222;6.624;2024-03-22T05:05:09;43.00;;;24.17;;
3875;SDS011;1953;51.222;6.624;2024-03-22T05:09:52;41.80;;;23.10;;
3875;SDS011;1953;51.222;6.624;2024-03-22T05:14:36;35.50;;;21.37;;
3875;SDS011;1953;51.222;6.624;2024-03-22T05:19:19;36.73;;;22.67;;
3875;SDS011;1953;51.222;6.624;2024-03-22T05:24:02;36.53;;;21.37;;
3875;SDS011;1953;51.222;6.624;2024-03-22T05:28:44;36.47;;;21.00;;
3875;SDS011;1953;51.222;6.624;2024-03-22T05:33:28;32.63;;;20.00;;
3875;SDS011;1953;51.222;6.624;2024-03-22T05:38:11;34.50;;;20.20;;
3875;SDS011;1953;51.222;6.624;2024-03-22T05:42:53;38.40;;;21.23;;
3875;SDS011;1953;51.222;6.624;2024-03-22T05:47:37;35.17;;;19.50;;
3875;SDS011;1953;51.222;6.624;2024-03-22T05:52:21;30.50;;;18.60;;
3875;SDS011;1953;51.222;6.624;2024-03-22T05:57:04;30.23;;;18.30;;
3875;SDS011;1953;51.222;6.624;2024-03-22T06:01:46;30.83;;;17.30;;
3875;SDS011;1953;51.222;6.624;2024-03-22T06:06:29;31.27;;;19.20;;
3875;SDS011;1953;51.222;6.624;2024-03-22T06:11:13;37.80;;;19.67;;
3875;SDS011;1953;51.222;6.624;2024-03-22T06:15:56;43.63;;;20.87;;
3875;SDS011;1953;51.222;6.624;2024-03-22T06:20:38;31.30;;;19.10;;
3875;SDS011;1953;51.222;6.624;2024-03-22T06:25:21;38.47;;;19.60;;
3875;SDS011;1953;51.222;6.624;2024-03-22T06:30:05;34.03;;;19.90;;
3875;SDS011;1953;51.222;6.624;2024-03-22T06:34:48;30.97;;;17.60;;
3875;SDS011;1953;51.222;6.624;2024-03-22T06:39:31;29.27;;;19.00;;
3875;SDS011;1953;51.222;6.624;2024-03-22T06:44:14;30.30;;;19.10;;
3875;SDS011;1953;51.222;6.624;2024-03-22T06:48:58;32.00;;;18.33;;
3875;SDS011;1953;51.222;6.624;2024-03-22T06:53:41;30.90;;;19.43;;
3875;SDS011;1953;51.222;6.624;2024-03-22T06:58:23;35.73;;;19.00;;
3875;SDS011;1953;51.222;6.624;2024-03-22T07:03:06;32.80;;;18.50;;
3875;SDS011;1953;51.222;6.624;2024-03-22T07:07:49;36.60;;;20.50;;
3875;SDS011;1953;51.222;6.624;2024-03-22T07:12:34;40.63;;;20.83;;
3875;SDS011;1953;51.222;6.624;2024-03-22T07:17:16;39.13;;;21.17;;
3875;SDS011;1953;51.222;6.624;2024-03-22T07:22:04;41.63;;;22.47;;
3875;SDS011;1953;51.222;6.624;2024-03-22T07:26:48;36.80;;;22.80;;
3875;SDS011;1953;51.222;6.624;2024-03-22T07:31:30;43.03;;;24.20;;
3875;SDS011;1953;51.222;6.624;2024-03-22T07:36:15;37.97;;;21.40;;
3875;SDS011;1953;51.222;6.624;2024-03-22T07:40:58;46.50;;;25.47;;
3875;SDS011;1953;51.222;6.624;2024-03-22T07:45:42;39.10;;;23.90;;
3875;SDS011;1953;51.222;6.624;2024-03-22T07:50:24;40.10;;;24.30;;
3875;SDS011;1953;51.222;6.624;2024-03-22T07:55:07;32.73;;;19.97;;
3875;SDS011;1953;51.222;6.624;2024-03-22T07:59:50;41.23;;;23.60;;
3875;SDS011;1953;51.222;6.624;2024-03-22T08:04:34;29.97;;;17.00;;
3875;SDS011;1953;51.222;6.624;2024-03-22T08:09:16;34.03;;;24.10;;
3875;SDS011;1953;51.222;6.624;2024-03-22T08:13:59;36.10;;;22.43;;
3875;SDS011;1953;51.222;6.624;2024-03-22T08:18:44;38.57;;;21.33;;
3875;SDS011;1953;51.222;6.624;2024-03-22T08:23:28;35.70;;;20.20;;
3875;SDS011;1953;51.222;6.624;2024-03-22T08:28:10;34.17;;;21.90;;
3875;SDS011;1953;51.222;6.624;2024-03-22T08:32:54;37.57;;;20.40;;
3875;SDS011;1953;51.222;6.624;2024-03-22T08:37:36;29.43;;;18.27;;
3875;SDS011;1953;51.222;6.624;2024-03-22T08:42:20;30.13;;;18.07;;
3875;SDS011;1953;51.222;6.624;2024-03-22T08:47:03;32.07;;;18.03;;
3875;SDS011;1953;51.222;6.624;2024-03-22T08:51:45;29.20;;;17.57;;
3875;SDS011;1953;51.222;6.624;2024-03-22T08:56:29;33.50;;;17.53;;
3875;SDS011;1953;51.222;6.624;2024-03-22T09:01:12;27.37;;;13.97;;
3875;SDS011;1953;51.222;6.624;2024-03-22T09:05:56;26.27;;;16.07;;
3875;SDS011;1953;51.222;6.624;2024-03-22T09:10:39;25.73;;;15.90;;
3875;SDS011;1953;51.222;6.624;2024-03-22T09:15:21;26.83;;;16.57;;
3875;SDS011;1953;51.222;6.624;2024-03-22T09:20:06;28.63;;;16.00;;
3875;SDS011;1953;51.222;6.624;2024-03-22T09:24:50;28.00;;;14.67;;
3875;SDS011;1953;51.222;6.624;2024-03-22T09:29:32;32.40;;;14.60;;
3875;SDS011;1953;51.222;6.624;2024-03-22T09:34:14;26.20;;;16.60;;
3875;SDS011;1953;51.222;6.624;2024-03-22T09:38:58;25.87;;;15.60;;
3875;SDS011;1953;51.222;6.624;2024-03-22T09:43:41;20.30;;;13.40;;
3875;SDS011;1953;51.222;6.624;2024-03-22T09:48:27;20.83;;;13.57;;
3875;SDS011;1953;51.222;6.624;2024-03-22T09:53:11;19.57;;;11.23;;
3875;SDS011;1953;51.222;6.624;2024-03-22T09:57:56;22.37;;;14.17;;
3875;SDS011;1953;51.222;6.624;2024-03-22T10:02:39;25.33;;;14.40;;
3875;SDS011;1953;51.222;6.624;2024-03-22T10:07:22;24.40;;;14.40;;
3875;SDS011;1953;51.222;6.624;2024-03-22T10:12:05;26.13;;;17.47;;
3875;SDS011;1953;51.222;6.624;2024-03-22T10:16:49;27.90;;;18.30;;
3875;SDS011;1953;51.222;6.624;2024-03-22T10:21:33;26.63;;;17.27;;
3875;SDS011;1953;51.222;6.624;2024-03-22T10:26:16;32.23;;;19.47;;
3875;SDS011;1953;51.222;6.624;2024-03-22T10:30:58;29.90;;;17.92;;
3875;SDS011;1953;51.222;6.624;2024-03-22T10:35:42;27.35;;;17.50;;
3875;SDS011;1953;51.222;6.624;2024-03-22T10:40:27;25.23;;;17.10;;
3875;SDS011;1953;51.222;6.624;2024-03-22T10:45:10;29.23;;;16.33;;
3875;SDS011;1953;51.222;6.624;2024-03-22T10:49:54;27.20;;;15.70;;
3875;SDS011;1953;51.222;6.624;2024-03-22T10:54:47;31.23;;;15.40;;
3875;SDS011;1953;51.222;6.624;2024-03-22T10:59:33;24.40;;;14.47;;
3875;SDS011;1953;51.222;6.624;2024-03-22T11:04:16;23.13;;;13.30;;
3875;SDS011;1953;51.222;6.624;2024-03-22T11:08:59;23.10;;;14.30;;
3875;SDS011;1953;51.222;6.624;2024-03-22T11:13:46;21.93;;;13.93;;
3875;SDS011;1953;51.222;6.624;2024-03-22T11:18:29;25.00;;;14.60;;
3875;SDS011;1953;51.222;6.624;2024-03-22T11:23:12;26.10;;;15.47;;
3875;SDS011;1953;51.222;6.624;2024-03-22T11:27:54;23.77;;;15.47;;
3875;SDS011;1953;51.222;6.624;2024-03-22T11:32:38;24.73;;;14.63;;
3875;SDS011;1953;51.222;6.624;2024-03-22T11:37:25;24.37;;;15.47;;
3875;SDS011;1953;51.222;6.624;2024-03-22T11:42:08;25.13;;;15.00;;
3875;SDS011;1953;51.222;6.624;2024-03-22T11:46:52;28.83;;;16.50;;
3875;SDS011;1953;51.222;6.624;2024-03-22T11:51:36;26.63;;;17.87;;
3875;SDS011;1953;51.222;6.624;2024-03-22T11:56:18;31.43;;;20.53;;
3875;SDS011;1953;51.222;6.624;2024-03-22T12:01:01;26.40;;;17.47;;
3875;SDS011;1953;51.222;6.624;2024-03-22T12:05:44;28.83;;;14.67;;
3875;SDS011;1953;51.222;6.624;2024-03-22T12:10:28;25.53;;;15.60;;
3875;SDS011;1953;51.222;6.624;2024-03-22T12:15:11;23.80;;;14.40;;
3875;SDS011;1953;51.222;6.624;2024-03-22T12:23:09;22.20;;;14.53;;
3875;SDS011;1953;51.222;6.624;2024-03-22T12:27:51;19.97;;;13.43;;
3875;SDS011;1953;51.222;6.624;2024-03-22T12:32:34;22.37;;;14.20;;
3875;SDS011;1953;51.222;6.624;2024-03-22T12:37:16;22.37;;;13.43;;
3875;SDS011;1953;51.222;6.624;2024-03-22T12:42:00;18.07;;;12.47;;
3875;SDS011;1953;51.222;6.624;2024-03-22T12:46:43;20.00;;;12.93;;
3875;SDS011;1953;51.222;6.624;2024-03-22T12:51:26;19.87;;;12.33;;
3875;SDS011;1953;51.222;6.624;2024-03-22T12:56:08;16.70;;;12.10;;
3875;SDS011;1953;51.222;6.624;2024-03-22T13:00:53;19.00;;;12.60;;
3875;SDS011;1953;51.222;6.624;2024-03-22T13:05:35;18.50;;;12.63;;
3875;SDS011;1953;51.222;6.624;2024-03-22T13:10:18;17.90;;;10.63;;
3875;SDS011;1953;51.222;6.624;2024-03-22T13:15:01;21.10;;;11.60;;
3875;SDS011;1953;51.222;6.624;2024-03-22T13:19:47;20.83;;;12.20;;
3875;SDS011;1953;51.222;6.624;2024-03-22T13:24:31;19.83;;;11.40;;
3875;SDS011;1953;51.222;6.624;2024-03-22T13:29:17;19.47;;;11.03;;
3875;SDS011;1953;51.222;6.624;2024-03-22T13:33:59;24.80;;;12.87;;
3875;SDS011;1953;51.222;6.624;2024-03-22T13:38:43;18.00;;;11.70;;
3875;SDS011;1953;51.222;6.624;2024-03-22T13:43:26;22.73;;;13.10;;
3875;SDS011;1953;51.222;6.624;2024-03-22T13:48:10;23.43;;;13.13;;
3875;SDS011;1953;51.222;6.624;2024-03-22T13:52:53;20.60;;;12.03;;
3875;SDS011;1953;51.222;6.624;2024-03-22T13:57:37;24.23;;;12.97;;
3875;SDS011;1953;51.222;6.624;2024-03-22T14:02:20;25.13;;;14.40;;
3875;SDS011;1953;51.222;6.624;2024-03-22T14:07:03;24.40;;;14.70;;
3875;SDS011;1953;51.222;6.624;2024-03-22T14:11:45;21.90;;;13.57;;
3875;SDS011;1953;51.222;6.624;2024-03-22T14:16:31;22.87;;;14.93;;
3875;SDS011;1953;51.222;6.624;2024-03-22T14:21:13;22.13;;;13.40;;
3875;SDS011;1953;51.222;6.624;2024-03-22T14:25:59;25.37;;;14.03;;
3875;SDS011;1953;51.222;6.624;2024-03-22T14:30:42;20.17;;;12.60;;
3875;SDS011;1953;51.222;6.624;2024-03-22T14:35:26;23.93;;;14.43;;
3875;SDS011;1953;51.222;6.624;2024-03-22T14:40:08;19.30;;;14.00;;
3875;SDS011;1953;51.222;6.624;2024-03-22T14:44:52;20.17;;;13.00;;
3875;SDS011;1953;51.222;6.624;2024-03-22T14:49:38;29.83;;;14.87;;
3875;SDS011;1953;51.222;6.624;2024-03-22T14:54:22;26.10;;;15.60;;
3875;SDS011;1953;51.222;6.624;2024-03-22T14:59:05;24.33;;;15.83;;
3875;SDS011;1953;51.222;6.624;2024-03-22T15:03:48;27.90;;;16.40;;
3875;SDS011;1953;51.222;6.624;2024-03-22T15:08:32;26.93;;;16.37;;
3875;SDS011;1953;51.222;6.624;2024-03-22T15:13:19;34.20;;;18.80;;
3875;SDS011;1953;51.222;6.624;2024-03-22T15:18:02;30.93;;;17.20;;
3875;SDS011;1953;51.222;6.624;2024-03-22T15:22:46;36.20;;;21.30;;
3875;SDS011;1953;51.222;6.624;2024-03-22T15:27:28;29.80;;;18.97;;
3875;SDS011;1953;51.222;6.624;2024-03-22T15:32:12;32.27;;;18.20;;
3875;SDS011;1953;51.222;6.624;2024-03-22T15:36:55;30.47;;;18.20;;
3875;SDS011;1953;51.222;6.624;2024-03-22T15:41:40;28.00;;;17.27;;
3875;SDS011;1953;51.222;6.624;2024-03-22T15:46:26;29.10;;;18.37;;
3875;SDS011;1953;51.222;6.624;2024-03-22T15:51:10;32.20;;;18.30;;
3875;SDS011;1953;51.222;6.624;2024-03-22T15:55:54;28.87;;;17.10;;
3875;SDS011;1953;51.222;6.624;2024-03-22T16:00:38;33.50;;;18.03;;
3875;SDS011;1953;51.222;6.624;2024-03-22T16:05:21;27.97;;;17.30;;
3875;SDS011;1953;51.222;6.624;2024-03-22T16:10:06;24.73;;;15.53;;
3875;SDS011;1953;51.222;6.624;2024-03-22T16:14:49;29.27;;;16.10;;
3875;SDS011;1953;51.222;6.624;2024-03-22T16:19:32;30.30;;;16.60;;
3875;SDS011;1953;51.222;6.624;2024-03-22T16:24:16;33.53;;;16.50;;
3875;SDS011;1953;51.222;6.624;2024-03-22T16:29:03;30.07;;;16.57;;
3875;SDS011;1953;51.222;6.624;2024-03-22T16:33:47;28.83;;;16.93;;
3875;SDS011;1953;51.222;6.624;2024-03-22T16:38:29;34.40;;;16.90;;
3875;SDS011;1953;51.222;6.624;2024-03-22T16:43:13;28.20;;;16.40;;
3875;SDS011;1953;51.222;6.624;2024-03-22T16:47:57;24.00;;;14.80;;
3875;SDS011;1953;51.222;6.624;2024-03-22T16:52:40;23.60;;;14.57;;
3875;SDS011;1953;51.222;6.624;2024-03-22T16:57:23;21.87;;;12.73;;
3875;SDS011;1953;51.222;6.624;2024-03-22T17:02:08;22.97;;;15.80;;
3875;SDS011;1953;51.222;6.624;2024-03-22T17:06:52;21.10;;;13.60;;
3875;SDS011;1953;51.222;6.624;2024-03-22T17:11:35;20.80;;;12.17;;
3875;SDS011;1953;51.222;6.624;2024-03-22T17:16:18;24.83;;;13.67;;
3875;SDS011;1953;51.222;6.624;2024-03-22T17:21:00;23.17;;;15.07;;
3875;SDS011;1953;51.222;6.624;2024-03-22T17:25:44;29.17;;;15.50;;
3875;SDS011;1953;51.222;6.624;2024-03-22T17:30:27;22.20;;;14.50;;
3875;SDS011;1953;51.222;6.624;2024-03-22T17:35:09;24.17;;;14.40;;
3875;SDS011;1953;51.222;6.624;2024-03-22T17:39:52;26.70;;;14.37;;
3875;SDS011;1953;51.222;6.624;2024-03-22T17:44:36;22.10;;;12.63;;
3875;SDS011;1953;51.222;6.624;2024-03-22T17:49:18;28.00;;;16.50;;
3875;SDS011;1953;51.222;6.624;2024-03-22T17:54:01;27.30;;;16.50;;
3875;SDS011;1953;51.222;6.624;2024-03-22T17:58:45;24.30;;;15.73;;
3875;SDS011;1953;51.222;6.624;2024-03-22T18:03:29;26.60;;;16.70;;
3875;SDS011;1953;51.222;6.624;2024-03-22T18:08:12;30.60;;;18.33;;
3875;SDS011;1953;51.222;6.624;2024-03-22T18:12:54;37.33;;;20.90;;
3875;SDS011;1953;51.222;6.624;2024-03-22T18:17:37;34.13;;;18.87;;
3875;SDS011;1953;51.222;6.624;2024-03-22T18:22:21;32.20;;;20.50;;
3875;SDS011;1953;51.222;6.624;2024-03-22T18:27:04;35.97;;;20.27;;
3875;SDS011;1953;51.222;6.624;2024-03-22T18:31:46;46.07;;;25.50;;
3875;SDS011;1953;51.222;6.624;2024-03-22T18:36:29;43.73;;;24.97;;
3875;SDS011;1953;51.222;6.624;2024-03-22T18:41:13;41.93;;;26.03;;
3875;SDS011;1953;51.222;6.624;2024-03-22T18:45:55;46.00;;;26.27;;
3875;SDS011;1953;51.222;6.624;2024-03-22T18:50:38;50.53;;;25.43;;
3875;SDS011;1953;51.222;6.624;2024-03-22T18:55:22;44.80;;;25.70;;
3875;SDS011;1953;51.222;6.624;2024-03-22T19:00:07;43.53;;;25.47;;
3875;SDS011;1953;51.222;6.624;2024-03-22T19:04:50;51.60;;;27.70;;
3875;SDS011;1953;51.222;6.624;2024-03-22T19:09:32;23.00;;;14.20;;
3875;SDS011;1953;51.222;6.624;2024-03-22T19:14:15;17.20;;;9.80;;
3875;SDS011;1953;51.222;6.624;2024-03-22T19:18:59;18.10;;;10.70;;
3875;SDS011;1953;51.222;6.624;2024-03-22T19:23:42;23.33;;;12.43;;
3875;SDS011;1953;51.222;6.624;2024-03-22T19:28:24;18.47;;;10.53;;
3875;SDS011;1953;51.222;6.624;2024-03-22T19:33:08;23.17;;;10.77;;
3875;SDS011;1953;51.222;6.624;2024-03-22T19:37:52;20.37;;;9.53;;
3875;SDS011;1953;51.222;6.624;2024-03-22T19:42:35;19.40;;;10.63;;
3875;SDS011;1953;51.222;6.624;2024-03-22T19:47:18;24.93;;;10.60;;
3875;SDS011;1953;51.222;6.624;2024-03-22T19:52:01;24.10;;;10.73;;
3875;SDS011;1953;51.222;6.624;2024-03-22T19:56:45;26.63;;;9.87;;
3875;SDS011;1953;51.222;6.624;2024-03-22T20:01:29;19.50;;;9.73;;
3875;SDS011;1953;51.222;6.624;2024-03-22T20:06:12;25.17;;;10.00;;
3875;SDS011;1953;51.222;6.624;2024-03-22T20:10:55;28.70;;;9.40;;
3875;SDS011;1953;51.222;6.624;2024-03-22T20:15:40;20.53;;;9.70;;
3875;SDS011;1953;51.222;6.624;2024-03-22T20:20:24;22.23;;;10.83;;
3875;SDS011;1953;51.222;6.624;2024-03-22T20:25:07;29.60;;;11.37;;
3875;SDS011;1953;51.222;6.624;2024-03-22T20:29:50;23.03;;;10.47;;
3875;SDS011;1953;51.222;6.624;2024-03-22T20:34:34;23.63;;;11.67;;
